首页
METAR-TAF:

METAR-TAF

机场 :

新德里, 印度

英迪拉·甘地国际机场

纬度: 28-34N, 经度: 077-07E, 海拔: 220米

当前天气观测

该预报发布于22分钟前的22:00 UTC
风速8节,风向西北
温度 32°C
湿度 17%
气压 1002 hPa
能見度: 3000
少量云层高于4000英尺
少量云层高于4000英尺, 塔状积云.
散云层高于10000英尺

METAR: VIDP 252200Z 31008KT 3000 HZ FEW040 FEW040TCU SCT100 32/04 Q1002 NOSIG

时间: 03:52 (22:22 UTC)

预报

该预报发布于5小时和22分钟前的17:00 UTC
预报有效从25日的 18点(UTC)到 26日的 24点(UTC)
风速节,风向
能見度: 3000
散云层高于10000英尺
成为
从 26日的 00点(UTC)到 26日的 01点(UTC)
风速3节,风向西转西南
能見度: 1500
成为
从 26日的 04点(UTC)到 26日的 05点(UTC)
风速5节,风向西
能見度: 3000
散云层高于3500英尺
成为
从 26日的 08点(UTC)到 26日的 09点(UTC)
风速8节,风向西转西北
能見度: 4500
成为
从 26日的 15点(UTC)到 26日的 17点(UTC)
风速5节,风向西
能見度: 3000
成为
从 26日的 21点(UTC)到 26日的 22点(UTC)
风速节,风向
能見度: 2000
霾, 轻雾

TAF: VIDP 251700Z 2518/2624 000000KT 3000 HZ SCT100 BECMG 2600/2601 24003KT 1500 HZ BECMG 2604/2605 27005KT 3000 HZ SCT035 BECMG 2608/2609 30008KT 4500 HZ BECMG 2615/2617 26005KT 3000 HZ BECMG 2621/2622 00000KT 2000 HZ BR

超过4000个机场的气象观测和天气预报(METAR&TAF报告)。

可查询的气象台以黄色和红色小点在地图上表示。

将鼠标移到小点上方,可查看气象台名称。

然后点击查看天气观测和预报。

如需切换地图:点击带黑十字的绿色按钮放大地图;点击带横线的绿色按钮缩小地图;或者点击绿色箭头查看邻近地区的地图。


METAR-TAF: